createdAt,value
2019-05-22T00:00:23.882Z,1000.50
2019-05-22T00:01:23.891Z,1000.55
2019-05-22T00:02:23.882Z,1000.54
2019-05-22T00:03:23.861Z,1000.60
2019-05-22T00:04:23.861Z,1000.59
2019-05-22T00:05:23.836Z,1000.58
2019-05-22T00:06:23.849Z,1000.62
2019-05-22T00:07:23.811Z,1000.61
2019-05-22T00:08:23.792Z,1000.61
2019-05-22T00:09:23.793Z,1000.59
2019-05-22T00:10:23.793Z,1000.60
2019-05-22T00:11:23.783Z,1000.57
2019-05-22T00:12:23.750Z,1000.56
2019-05-22T00:13:23.779Z,1000.61
2019-05-22T00:14:23.752Z,1000.62
2019-05-22T00:15:23.723Z,1000.62
2019-05-22T00:16:23.736Z,1000.63
2019-05-22T00:17:23.700Z,1000.64
2019-05-22T00:18:23.694Z,1000.67
2019-05-22T00:19:23.682Z,1000.62
2019-05-22T00:20:23.664Z,1000.67
2019-05-22T00:21:23.668Z,1000.68
2019-05-22T00:22:23.660Z,1000.63
2019-05-22T00:23:23.639Z,1000.67
2019-05-22T00:24:23.613Z,1000.62
2019-05-22T00:25:23.612Z,1000.60
2019-05-22T00:26:23.611Z,1000.57
2019-05-22T00:27:23.596Z,1000.60
2019-05-22T00:28:23.610Z,1000.63
2019-05-22T00:29:23.572Z,1000.62
2019-05-22T00:30:23.564Z,1000.61
2019-05-22T00:31:23.552Z,1000.63
2019-05-22T00:32:23.542Z,1000.59
2019-05-22T00:33:23.532Z,1000.62
2019-05-22T00:34:23.536Z,1000.60
2019-05-22T00:35:23.559Z,1000.63
2019-05-22T00:36:23.496Z,1000.58
2019-05-22T00:37:23.518Z,1000.60
2019-05-22T00:38:23.501Z,1000.60
2019-05-22T00:39:23.462Z,1000.65
2019-05-22T00:40:23.482Z,1000.64
2019-05-22T00:41:23.440Z,1000.62
2019-05-22T00:42:23.422Z,1000.63
2019-05-22T00:43:23.423Z,1000.62
2019-05-22T00:44:23.417Z,1000.68
2019-05-22T00:45:23.391Z,1000.68
2019-05-22T00:46:23.388Z,1000.67
2019-05-22T00:47:23.370Z,1000.70
2019-05-22T00:48:23.371Z,1000.65
2019-05-22T00:49:23.371Z,1000.68
2019-05-22T00:50:23.341Z,1000.68
2019-05-22T00:51:23.332Z,1000.70
2019-05-22T00:52:23.329Z,1000.72
2019-05-22T00:53:23.334Z,1000.70
2019-05-22T00:54:23.307Z,1000.67
2019-05-22T00:55:23.578Z,1000.71
2019-05-22T00:56:23.292Z,1000.73
2019-05-22T00:57:23.259Z,1000.72
2019-05-22T00:58:23.251Z,1000.70
2019-05-22T00:59:23.251Z,1000.73
2019-05-22T01:00:23.229Z,1000.73
2019-05-22T01:01:23.262Z,1000.69
2019-05-22T01:02:23.222Z,1000.74
2019-05-22T01:03:23.212Z,1000.72
2019-05-22T01:04:23.206Z,1000.76
2019-05-22T01:05:23.215Z,1000.77
2019-05-22T01:06:23.191Z,1000.80
2019-05-22T01:07:23.177Z,1000.82
2019-05-22T01:08:23.168Z,1000.81
2019-05-22T01:09:23.135Z,1000.81
2019-05-22T01:10:23.142Z,1000.80
2019-05-22T01:11:23.140Z,1000.83
2019-05-22T01:12:23.102Z,1000.82
2019-05-22T01:13:23.080Z,1000.85
2019-05-22T01:14:23.091Z,1000.81
2019-05-22T01:15:23.089Z,1000.85
2019-05-22T01:16:23.068Z,1000.84
2019-05-22T01:17:23.057Z,1000.85
2019-05-22T01:18:23.030Z,1000.83
2019-05-22T01:19:23.055Z,1000.79
2019-05-22T01:20:23.022Z,1000.84
2019-05-22T01:21:23.017Z,1000.81
2019-05-22T01:22:23.012Z,1000.78
2019-05-22T01:23:22.978Z,1000.82
2019-05-22T01:24:22.993Z,1000.87
2019-05-22T01:25:22.967Z,1000.82
2019-05-22T01:26:22.969Z,1000.81
2019-05-22T01:27:22.958Z,1000.87
2019-05-22T01:28:22.938Z,1000.85
2019-05-22T01:29:22.918Z,1000.86
2019-05-22T01:30:22.932Z,1000.85
2019-05-22T01:31:22.913Z,1000.91
2019-05-22T01:32:22.904Z,1000.94
2019-05-22T01:33:22.878Z,1000.88
2019-05-22T01:34:22.859Z,1000.86
2019-05-22T01:35:22.848Z,1000.86
2019-05-22T01:36:22.860Z,1000.89
2019-05-22T01:37:22.850Z,1000.86
2019-05-22T01:38:22.839Z,1000.86
2019-05-22T01:39:22.818Z,1000.90
2019-05-22T01:40:22.797Z,1000.86
2019-05-22T01:41:22.799Z,1000.89
2019-05-22T01:42:22.781Z,1000.88
2019-05-22T01:43:22.769Z,1000.88
2019-05-22T01:44:22.777Z,1000.86
2019-05-22T01:45:22.750Z,1000.86
2019-05-22T01:46:22.750Z,1000.89
2019-05-22T01:47:22.718Z,1000.92
2019-05-22T01:48:22.715Z,1000.89
2019-05-22T01:49:22.730Z,1000.89
2019-05-22T01:50:22.702Z,1000.91
2019-05-22T01:51:22.704Z,1000.94
2019-05-22T01:52:22.666Z,1000.93
2019-05-22T01:53:22.662Z,1000.91
2019-05-22T01:54:22.650Z,1000.93
2019-05-22T01:55:22.634Z,1000.92
2019-05-22T01:56:22.659Z,1000.92
2019-05-22T01:57:22.615Z,1000.96
2019-05-22T01:58:22.617Z,1000.91
2019-05-22T01:59:22.598Z,1000.94
2019-05-22T02:00:22.596Z,1000.91
2019-05-22T02:01:22.608Z,1000.95
2019-05-22T02:02:22.589Z,1001.02
2019-05-22T02:03:22.558Z,1000.95
2019-05-22T02:04:22.536Z,1000.96
2019-05-22T02:05:22.530Z,1000.88
2019-05-22T02:06:22.521Z,1000.94
2019-05-22T02:07:22.528Z,1000.90
2019-05-22T02:08:22.508Z,1000.88
2019-05-22T02:09:22.497Z,1000.88
2019-05-22T02:10:22.485Z,1000.88
2019-05-22T02:11:22.480Z,1000.86
2019-05-22T02:12:22.450Z,1000.93
2019-05-22T02:13:22.470Z,1000.92
2019-05-22T02:14:22.452Z,1001.02
2019-05-22T02:15:22.430Z,1001.01
2019-05-22T02:16:22.417Z,1001.02
2019-05-22T02:17:22.411Z,1001.00
2019-05-22T02:18:22.431Z,1001.04
2019-05-22T02:19:22.377Z,1001.03
2019-05-22T02:20:22.365Z,1001.04
2019-05-22T02:21:22.356Z,1001.04
2019-05-22T02:22:22.348Z,1001.06
2019-05-22T02:23:22.345Z,1001.08
2019-05-22T02:24:22.348Z,1001.01
2019-05-22T02:25:22.322Z,1001.12
2019-05-22T02:26:22.317Z,1001.10
2019-05-22T02:27:22.299Z,1001.12
2019-05-22T02:28:22.309Z,1001.15
2019-05-22T02:29:22.286Z,1001.14
2019-05-22T02:30:22.272Z,1001.14
2019-05-22T02:31:22.263Z,1001.16
2019-05-22T02:32:22.250Z,1001.11
2019-05-22T02:33:22.250Z,1001.15
2019-05-22T02:34:22.218Z,1001.14
2019-05-22T02:35:22.224Z,1001.14
2019-05-22T02:36:22.200Z,1001.14
2019-05-22T02:37:22.199Z,1001.18
2019-05-22T02:38:22.206Z,1001.15
2019-05-22T02:39:22.169Z,1001.21
2019-05-22T02:40:22.175Z,1001.21
2019-05-22T02:41:22.145Z,1001.22
2019-05-22T02:42:22.123Z,1001.21
2019-05-22T02:43:22.138Z,1001.24
2019-05-22T02:44:22.108Z,1001.22
2019-05-22T02:45:22.117Z,1001.24
2019-05-22T02:46:22.077Z,1001.29
2019-05-22T02:47:22.095Z,1001.28
2019-05-22T02:48:22.061Z,1001.25
2019-05-22T02:49:22.057Z,1001.24
2019-05-22T02:50:22.065Z,1001.27
2019-05-22T02:51:22.035Z,1001.25
2019-05-22T02:52:22.037Z,1001.26
2019-05-22T02:53:22.058Z,1001.26
2019-05-22T02:54:22.027Z,1001.29
2019-05-22T02:55:22.026Z,1001.28
2019-05-22T02:56:21.978Z,1001.31
2019-05-22T02:57:21.963Z,1001.28
2019-05-22T02:58:21.970Z,1001.33
2019-05-22T02:59:21.942Z,1001.30
2019-05-22T03:00:21.966Z,1001.29
2019-05-22T03:01:21.947Z,1001.25
2019-05-22T03:02:21.914Z,1001.29
2019-05-22T03:03:21.908Z,1001.28
2019-05-22T03:04:21.917Z,1001.28
2019-05-22T03:05:21.881Z,1001.30
2019-05-22T03:06:22.880Z,1001.34
2019-05-22T03:07:21.897Z,1001.28
2019-05-22T03:08:22.887Z,1001.34
2019-05-22T03:09:21.878Z,1001.33
2019-05-22T03:10:21.836Z,1001.34
2019-05-22T03:11:21.815Z,1001.36
2019-05-22T03:12:21.819Z,1001.37
2019-05-22T03:13:21.839Z,1001.31
2019-05-22T03:14:21.786Z,1001.39
2019-05-22T03:15:22.589Z,1001.41
2019-05-22T03:16:21.802Z,1001.38
2019-05-22T03:17:21.782Z,1001.42
2019-05-22T03:18:21.748Z,1001.44
2019-05-22T03:19:21.747Z,1001.39
2019-05-22T03:20:21.766Z,1001.38
2019-05-22T03:21:21.709Z,1001.39
2019-05-22T03:22:21.715Z,1001.37
2019-05-22T03:23:21.693Z,1001.45
2019-05-22T03:24:21.699Z,1001.42
2019-05-22T03:25:21.705Z,1001.45
2019-05-22T03:26:22.127Z,1001.48
2019-05-22T03:27:21.662Z,1001.44
2019-05-22T03:28:21.690Z,1001.43
2019-05-22T03:29:21.652Z,1001.43
2019-05-22T03:30:21.697Z,1001.45
2019-05-22T03:31:21.629Z,1001.46
2019-05-22T03:32:21.628Z,1001.45
2019-05-22T03:33:21.575Z,1001.48
2019-05-22T03:34:21.596Z,1001.47
2019-05-22T03:35:21.567Z,1001.46
2019-05-22T03:36:21.628Z,1001.49
2019-05-22T03:37:21.555Z,1001.48
2019-05-22T03:38:21.551Z,1001.49
2019-05-22T03:39:21.560Z,1001.51
2019-05-22T03:40:21.506Z,1001.51
2019-05-22T03:41:21.512Z,1001.57
2019-05-22T03:42:21.485Z,1001.55
2019-05-22T03:43:21.465Z,1001.52
2019-05-22T03:44:23.169Z,1001.56
2019-05-22T03:45:21.445Z,1001.55
2019-05-22T03:46:21.524Z,1001.62
2019-05-22T03:47:21.462Z,1001.56
2019-05-22T03:48:21.421Z,1001.63
2019-05-22T03:49:29.827Z,1001.65
2019-05-22T03:50:22.412Z,1001.68
2019-05-22T03:51:21.435Z,1001.68
2019-05-22T03:52:21.390Z,1001.69
2019-05-22T03:53:21.374Z,1001.67
2019-05-22T03:54:21.392Z,1001.68
2019-05-22T03:55:21.357Z,1001.67
2019-05-22T03:56:21.351Z,1001.69
2019-05-22T03:57:23.093Z,1001.71
2019-05-22T03:58:21.326Z,1001.70
2019-05-22T03:59:21.389Z,1001.74
2019-05-22T04:00:21.289Z,1001.69
2019-05-22T04:01:21.279Z,1001.74
2019-05-22T04:02:21.285Z,1001.71
2019-05-22T04:03:21.419Z,1001.76
2019-05-22T04:04:21.257Z,1001.75
2019-05-22T04:05:21.304Z,1001.76
2019-05-22T04:06:21.223Z,1001.78
2019-05-22T04:07:21.219Z,1001.77
2019-05-22T04:08:21.222Z,1001.79
2019-05-22T04:09:21.253Z,1001.82
2019-05-22T04:10:21.191Z,1001.82
2019-05-22T04:11:21.182Z,1001.84
2019-05-22T04:12:22.327Z,1001.83
2019-05-22T04:13:21.973Z,1001.84
2019-05-22T04:14:21.158Z,1001.81
2019-05-22T04:15:21.288Z,1001.84
2019-05-22T04:16:21.134Z,1001.84
2019-05-22T04:17:21.156Z,1001.82
2019-05-22T04:18:22.981Z,1001.84
2019-05-22T04:19:21.147Z,1001.86
2019-05-22T04:20:21.115Z,1001.87
2019-05-22T04:21:21.066Z,1001.86
2019-05-22T04:22:21.088Z,1001.84
2019-05-22T04:23:21.045Z,1001.88
2019-05-22T04:24:21.043Z,1001.91
2019-05-22T04:25:21.038Z,1001.91
2019-05-22T04:26:21.011Z,1001.98
2019-05-22T04:27:21.000Z,1001.94
2019-05-22T04:28:21.472Z,1001.98
2019-05-22T04:29:20.994Z,1001.97
2019-05-22T04:30:21.001Z,1001.98
2019-05-22T04:31:20.973Z,1002.00
2019-05-22T04:32:20.951Z,1002.03
2019-05-22T04:33:20.939Z,1002.00
2019-05-22T04:34:21.050Z,1001.98
2019-05-22T04:35:20.914Z,1002.02
2019-05-22T04:36:20.932Z,1002.04
2019-05-22T04:37:20.906Z,1002.07
2019-05-22T04:38:20.914Z,1002.03
2019-05-22T04:39:20.892Z,1002.08
2019-05-22T04:40:21.901Z,1002.04
2019-05-22T04:41:20.872Z,1002.10
2019-05-22T04:42:20.851Z,1002.07
2019-05-22T04:43:21.079Z,1002.06
2019-05-22T04:44:20.812Z,1002.07
2019-05-22T04:45:21.872Z,1002.08
2019-05-22T04:46:20.845Z,1002.05
2019-05-22T04:47:20.786Z,1002.07
2019-05-22T04:48:20.839Z,1002.08
2019-05-22T04:49:21.412Z,1002.10
2019-05-22T04:50:21.327Z,1002.08
2019-05-22T04:51:20.766Z,1002.11
2019-05-22T04:52:20.730Z,1002.12
2019-05-22T04:53:20.708Z,1002.13
2019-05-22T04:54:20.742Z,1002.11
2019-05-22T04:55:20.721Z,1002.14
2019-05-22T04:56:20.700Z,1002.12
2019-05-22T04:57:20.661Z,1002.08
2019-05-22T04:58:20.665Z,1002.15
2019-05-22T04:59:20.645Z,1002.16
2019-05-22T05:00:20.688Z,1002.13
2019-05-22T05:01:20.698Z,1002.19
2019-05-22T05:02:20.633Z,1002.18
2019-05-22T05:03:20.623Z,1002.22
2019-05-22T05:04:20.622Z,1002.17
2019-05-22T05:05:21.962Z,1002.20
2019-05-22T05:06:23.034Z,1002.14
2019-05-22T05:07:20.741Z,1002.21
2019-05-22T05:08:20.593Z,1002.19
2019-05-22T05:09:21.342Z,1002.22
2019-05-22T05:10:20.575Z,1002.17
2019-05-22T05:11:20.522Z,1002.20
2019-05-22T05:12:20.541Z,1002.26
2019-05-22T05:13:20.544Z,1002.31
2019-05-22T05:14:20.535Z,1002.30
2019-05-22T05:15:20.532Z,1002.29
2019-05-22T05:16:20.481Z,1002.30
2019-05-22T05:17:20.499Z,1002.27
2019-05-22T05:18:20.482Z,1002.33
2019-05-22T05:19:20.437Z,1002.34
2019-05-22T05:20:22.691Z,1002.32
2019-05-22T05:21:20.432Z,1002.34
2019-05-22T05:22:20.409Z,1002.34
2019-05-22T05:23:21.450Z,1002.39
2019-05-22T05:24:20.372Z,1002.35
2019-05-22T05:25:20.369Z,1002.41
2019-05-22T05:26:20.394Z,1002.40
2019-05-22T05:27:20.369Z,1002.40
2019-05-22T05:28:20.331Z,1002.41
2019-05-22T05:29:20.319Z,1002.45
2019-05-22T05:30:21.378Z,1002.48
2019-05-22T05:31:20.388Z,1002.46
2019-05-22T05:32:20.298Z,1002.49
2019-05-22T05:33:20.302Z,1002.52
2019-05-22T05:34:20.307Z,1002.52
2019-05-22T05:35:20.263Z,1002.58
2019-05-22T05:36:20.248Z,1002.55
2019-05-22T05:37:20.257Z,1002.61
2019-05-22T05:38:20.231Z,1002.58
2019-05-22T05:39:20.252Z,1002.60
2019-05-22T05:40:20.210Z,1002.60
2019-05-22T05:41:20.210Z,1002.57
2019-05-22T05:42:20.187Z,1002.61
2019-05-22T05:43:20.218Z,1002.65
2019-05-22T05:44:20.171Z,1002.66
2019-05-22T05:45:20.203Z,1002.67
2019-05-22T05:46:20.209Z,1002.65
2019-05-22T05:47:20.138Z,1002.69
2019-05-22T05:48:20.117Z,1002.66
2019-05-22T05:49:20.156Z,1002.68
2019-05-22T05:50:20.149Z,1002.65
2019-05-22T05:51:20.107Z,1002.68
2019-05-22T05:52:20.071Z,1002.68
2019-05-22T05:53:20.067Z,1002.71
2019-05-22T05:54:20.078Z,1002.70
2019-05-22T05:55:20.036Z,1002.63
2019-05-22T05:56:20.129Z,1002.65
2019-05-22T05:57:20.026Z,1002.69
2019-05-22T05:58:20.031Z,1002.73
2019-05-22T05:59:20.013Z,1002.72
2019-05-22T06:00:19.977Z,1002.77
2019-05-22T06:01:20.006Z,1002.73
2019-05-22T06:02:19.959Z,1002.73
2019-05-22T06:03:20.314Z,1002.71
2019-05-22T06:04:33.599Z,1002.73
2019-05-22T06:05:20.929Z,1002.77
2019-05-22T06:06:20.008Z,1002.77
2019-05-22T06:07:19.915Z,1002.78
2019-05-22T06:08:19.885Z,1002.79
2019-05-22T06:09:19.907Z,1002.83
2019-05-22T06:10:19.878Z,1002.82
2019-05-22T06:11:19.963Z,1002.84
2019-05-22T06:12:19.866Z,1002.84
2019-05-22T06:13:19.838Z,1002.83
2019-05-22T06:14:19.832Z,1002.84
2019-05-22T06:15:19.901Z,1002.83
2019-05-22T06:16:20.665Z,1002.83
2019-05-22T06:17:19.916Z,1002.77
2019-05-22T06:18:19.787Z,1002.83
2019-05-22T06:19:20.058Z,1002.81
2019-05-22T06:20:19.779Z,1002.83
2019-05-22T06:21:19.793Z,1002.85
2019-05-22T06:22:19.846Z,1002.90
2019-05-22T06:23:21.182Z,1002.88
2019-05-22T06:24:20.768Z,1002.80
2019-05-22T06:25:19.777Z,1002.86
2019-05-22T06:26:19.816Z,1002.85
2019-05-22T06:27:20.238Z,1002.87
2019-05-22T06:28:20.220Z,1002.84
2019-05-22T06:29:19.741Z,1002.85
2019-05-22T06:30:19.721Z,1002.91
2019-05-22T06:31:19.783Z,1002.92
2019-05-22T06:32:20.677Z,1002.88
2019-05-22T06:33:19.741Z,1002.88
2019-05-22T06:34:21.326Z,1002.93
2019-05-22T06:35:19.655Z,1002.88
2019-05-22T06:36:19.707Z,1002.93
2019-05-22T06:37:19.712Z,1002.98
2019-05-22T06:38:19.669Z,1002.96
2019-05-22T06:39:19.636Z,1002.98
2019-05-22T06:40:19.629Z,1003.00
2019-05-22T06:41:19.631Z,1003.03
2019-05-22T06:42:19.601Z,1003.03
2019-05-22T06:43:20.399Z,1003.05
2019-05-22T06:44:20.022Z,1003.02
2019-05-22T06:45:19.726Z,1003.04
2019-05-22T06:46:19.558Z,1003.03
2019-05-22T06:47:19.508Z,1003.08
2019-05-22T06:48:19.628Z,1003.10
2019-05-22T06:49:19.532Z,1003.13
2019-05-22T06:50:19.545Z,1003.13
2019-05-22T06:51:19.912Z,1003.12
2019-05-22T06:52:19.452Z,1003.15
2019-05-22T06:53:19.444Z,1003.11
2019-05-22T06:54:19.440Z,1003.10
2019-05-22T06:55:19.382Z,1003.17
2019-05-22T06:56:23.595Z,1003.16
2019-05-22T06:57:19.458Z,1003.15
2019-05-22T06:58:19.531Z,1003.22
2019-05-22T06:59:19.426Z,1003.20
2019-05-22T07:00:19.336Z,1003.21
2019-05-22T07:01:19.359Z,1003.19
2019-05-22T07:02:20.326Z,1003.15
2019-05-22T07:03:19.389Z,1003.15
2019-05-22T07:04:19.377Z,1003.17
2019-05-22T07:05:19.357Z,1003.15
2019-05-22T07:06:19.377Z,1003.17
2019-05-22T07:07:19.302Z,1003.23
2019-05-22T07:08:19.469Z,1003.23
2019-05-22T07:09:19.309Z,1003.19
2019-05-22T07:10:19.334Z,1003.21
2019-05-22T07:11:19.281Z,1003.17
2019-05-22T07:12:19.263Z,1003.24
2019-05-22T07:13:19.208Z,1003.28
2019-05-22T07:14:19.213Z,1003.32
2019-05-22T07:15:19.229Z,1003.29
2019-05-22T07:16:19.162Z,1003.23
2019-05-22T07:17:19.154Z,1003.26
2019-05-22T07:18:19.167Z,1003.28
2019-05-22T07:19:19.146Z,1003.25
2019-05-22T07:20:19.153Z,1003.25
2019-05-22T07:21:32.080Z,1003.22
2019-05-22T07:22:20.094Z,1003.26
2019-05-22T07:23:19.184Z,1003.22
2019-05-22T07:24:19.100Z,1003.25
2019-05-22T07:25:19.095Z,1003.22
2019-05-22T07:26:19.199Z,1003.29
2019-05-22T07:27:19.082Z,1003.33
2019-05-22T07:28:19.133Z,1003.35
2019-05-22T07:29:19.234Z,1003.41
2019-05-22T07:30:19.050Z,1003.35
2019-05-22T07:31:19.092Z,1003.33
2019-05-22T07:32:19.045Z,1003.34
2019-05-22T07:33:19.214Z,1003.34
2019-05-22T07:34:18.970Z,1003.33
2019-05-22T07:35:18.992Z,1003.36
2019-05-22T07:36:19.034Z,1003.35
2019-05-22T07:37:18.932Z,1003.37
2019-05-22T07:38:18.941Z,1003.40
2019-05-22T07:39:19.977Z,1003.34
2019-05-22T07:40:19.328Z,1003.39
2019-05-22T07:41:18.980Z,1003.41
2019-05-22T07:42:18.993Z,1003.42
2019-05-22T07:43:18.978Z,1003.40
2019-05-22T07:44:18.977Z,1003.41
2019-05-22T07:45:18.906Z,1003.39
2019-05-22T07:46:18.852Z,1003.45
2019-05-22T07:47:18.895Z,1003.42
2019-05-22T07:48:18.842Z,1003.41
2019-05-22T07:49:18.803Z,1003.41
2019-05-22T07:50:18.824Z,1003.47
2019-05-22T07:51:18.795Z,1003.45
2019-05-22T07:52:18.777Z,1003.51
2019-05-22T07:53:18.796Z,1003.52
2019-05-22T07:54:22.412Z,1003.48
2019-05-22T07:55:18.791Z,1003.49
2019-05-22T07:56:19.324Z,1003.50
2019-05-22T07:57:19.028Z,1003.56
2019-05-22T07:58:19.047Z,1003.55
2019-05-22T07:59:18.738Z,1003.56
2019-05-22T08:00:18.765Z,1003.61
2019-05-22T08:01:18.704Z,1003.55
2019-05-22T08:02:18.714Z,1003.52
2019-05-22T08:03:18.659Z,1003.56
2019-05-22T08:04:18.654Z,1003.56
2019-05-22T08:05:18.644Z,1003.52
2019-05-22T08:06:18.644Z,1003.52
2019-05-22T08:07:18.631Z,1003.53
2019-05-22T08:08:18.942Z,1003.53
2019-05-22T08:09:19.147Z,1003.55
2019-05-22T08:10:19.166Z,1003.52
2019-05-22T08:11:18.824Z,1003.58
2019-05-22T08:12:18.715Z,1003.57
2019-05-22T08:13:18.612Z,1003.55
2019-05-22T08:14:18.582Z,1003.57
2019-05-22T08:15:18.634Z,1003.59
2019-05-22T08:16:18.504Z,1003.60
2019-05-22T08:17:18.615Z,1003.60
2019-05-22T08:18:18.564Z,1003.59
2019-05-22T08:19:18.672Z,1003.62
2019-05-22T08:20:18.677Z,1003.65
2019-05-22T08:21:18.542Z,1003.59
2019-05-22T08:22:18.545Z,1003.58
2019-05-22T08:23:18.576Z,1003.57
2019-05-22T08:24:18.526Z,1003.56
2019-05-22T08:25:18.439Z,1003.54
2019-05-22T08:26:19.348Z,1003.55
2019-05-22T08:27:18.448Z,1003.54
2019-05-22T08:28:18.392Z,1003.56
2019-05-22T08:29:18.372Z,1003.57
2019-05-22T08:30:18.389Z,1003.61
2019-05-22T08:31:18.343Z,1003.58
2019-05-22T08:32:18.351Z,1003.60
2019-05-22T08:33:18.384Z,1003.63
2019-05-22T08:34:18.335Z,1003.61
2019-05-22T08:35:18.345Z,1003.62
2019-05-22T08:36:18.308Z,1003.66
2019-05-22T08:37:18.306Z,1003.63
2019-05-22T08:38:18.850Z,1003.63
2019-05-22T08:39:23.451Z,1003.59
2019-05-22T08:40:18.465Z,1003.63
2019-05-22T08:41:18.306Z,1003.60
2019-05-22T08:42:18.346Z,1003.63
2019-05-22T08:43:18.329Z,1003.62
2019-05-22T08:44:18.216Z,1003.68
2019-05-22T08:45:18.197Z,1003.65
2019-05-22T08:46:18.191Z,1003.64
2019-05-22T08:47:18.505Z,1003.61
2019-05-22T08:48:18.241Z,1003.64
2019-05-22T08:49:18.167Z,1003.66
2019-05-22T08:50:18.144Z,1003.65
2019-05-22T08:51:18.132Z,1003.63
2019-05-22T08:52:23.640Z,1003.62
2019-05-22T08:53:19.145Z,1003.62
2019-05-22T08:54:18.100Z,1003.65
2019-05-22T08:55:18.092Z,1003.64
2019-05-22T08:56:18.084Z,1003.68
2019-05-22T08:57:18.070Z,1003.65
2019-05-22T08:58:18.054Z,1003.64
2019-05-22T08:59:19.926Z,1003.64
2019-05-22T09:00:18.039Z,1003.64
2019-05-22T09:01:18.023Z,1003.65
2019-05-22T09:02:18.021Z,1003.70
2019-05-22T09:03:17.998Z,1003.68
2019-05-22T09:04:17.992Z,1003.70
2019-05-22T09:05:21.263Z,1003.75
2019-05-22T09:06:18.015Z,1003.76
2019-05-22T09:07:17.979Z,1003.79
2019-05-22T09:08:17.960Z,1003.83
2019-05-22T09:09:17.963Z,1003.86
2019-05-22T09:10:17.963Z,1003.79
2019-05-22T09:11:17.918Z,1003.84
2019-05-22T09:12:17.922Z,1003.82
2019-05-22T09:13:17.920Z,1003.83
2019-05-22T09:14:17.938Z,1003.87
2019-05-22T09:15:17.872Z,1003.84
2019-05-22T09:16:17.906Z,1003.83
2019-05-22T09:17:17.919Z,1003.85
2019-05-22T09:18:17.850Z,1003.88
2019-05-22T09:19:17.844Z,1003.86
2019-05-22T09:20:17.824Z,1003.85
2019-05-22T09:21:17.874Z,1003.89
2019-05-22T09:22:17.824Z,1003.84
2019-05-22T09:23:17.851Z,1003.82
2019-05-22T09:24:17.802Z,1003.79
2019-05-22T09:25:17.771Z,1003.86
2019-05-22T09:26:17.750Z,1003.89
2019-05-22T09:27:17.770Z,1003.89
2019-05-22T09:28:17.748Z,1003.90
2019-05-22T09:29:17.750Z,1003.96
2019-05-22T09:30:17.721Z,1003.96
2019-05-22T09:31:17.720Z,1004.03
2019-05-22T09:32:17.698Z,1003.99
2019-05-22T09:33:17.682Z,1003.99
2019-05-22T09:34:17.686Z,1004.01
2019-05-22T09:35:17.679Z,1004.03
2019-05-22T09:36:17.664Z,1004.03
2019-05-22T09:37:17.662Z,1003.98
2019-05-22T09:38:17.627Z,1004.01
2019-05-22T09:39:17.628Z,1003.98
2019-05-22T09:40:17.613Z,1003.95
2019-05-22T09:41:17.611Z,1004.02
2019-05-22T09:42:17.623Z,1003.98
2019-05-22T09:43:17.575Z,1003.95
2019-05-22T09:44:17.610Z,1004.00
2019-05-22T09:45:17.551Z,1003.97
2019-05-22T09:46:17.530Z,1004.01
2019-05-22T09:47:17.539Z,1004.05
2019-05-22T09:48:17.507Z,1003.99
2019-05-22T09:49:17.499Z,1004.00
2019-05-22T09:50:17.529Z,1004.00
2019-05-22T09:51:17.492Z,1003.97
2019-05-22T09:52:17.513Z,1004.00
2019-05-22T09:53:17.471Z,1004.00
2019-05-22T09:54:17.453Z,1004.02
2019-05-22T09:55:17.470Z,1003.99
2019-05-22T09:56:17.418Z,1003.99
2019-05-22T09:57:17.450Z,1004.07
2019-05-22T09:58:17.476Z,1004.08
2019-05-22T09:59:17.403Z,1004.13
2019-05-22T10:00:17.388Z,1004.11
2019-05-22T10:01:17.372Z,1004.06
2019-05-22T10:02:17.379Z,1004.13
2019-05-22T10:03:17.369Z,1004.08
2019-05-22T10:04:17.348Z,1004.09
2019-05-22T10:05:18.376Z,1004.07
2019-05-22T10:06:17.319Z,1004.12
2019-05-22T10:07:17.306Z,1004.10
2019-05-22T10:08:17.291Z,1004.08
2019-05-22T10:09:17.314Z,1004.15
2019-05-22T10:10:17.278Z,1004.28
2019-05-22T10:11:17.260Z,1004.21
2019-05-22T10:12:17.332Z,1004.16
2019-05-22T10:13:17.414Z,1004.20
2019-05-22T10:14:17.247Z,1004.26
2019-05-22T10:15:17.234Z,1004.32
2019-05-22T10:16:17.227Z,1004.36
2019-05-22T10:17:17.205Z,1004.28
2019-05-22T10:18:17.185Z,1004.25
2019-05-22T10:19:17.202Z,1004.30
2019-05-22T10:20:17.202Z,1004.25
2019-05-22T10:21:17.148Z,1004.28
2019-05-22T10:22:17.163Z,1004.33
2019-05-22T10:23:17.143Z,1004.29
2019-05-22T10:24:17.130Z,1004.43
2019-05-22T10:25:17.447Z,1004.30
2019-05-22T10:26:17.136Z,1004.29
2019-05-22T10:27:17.104Z,1004.30
2019-05-22T10:28:17.085Z,1004.29
2019-05-22T10:29:17.097Z,1004.32
2019-05-22T10:30:17.062Z,1004.32
2019-05-22T10:31:17.920Z,1004.30
2019-05-22T10:32:17.051Z,1004.32
2019-05-22T10:33:17.049Z,1004.38
2019-05-22T10:34:17.035Z,1004.32
2019-05-22T10:35:17.010Z,1004.30
2019-05-22T10:36:17.043Z,1004.23
2019-05-22T10:37:17.021Z,1004.31
2019-05-22T10:38:16.972Z,1004.33
2019-05-22T10:39:16.962Z,1004.41
2019-05-22T10:40:16.963Z,1004.32
2019-05-22T10:41:16.945Z,1004.33
2019-05-22T10:42:16.974Z,1004.34
2019-05-22T10:43:17.017Z,1004.27
2019-05-22T10:44:16.914Z,1004.25
2019-05-22T10:45:16.926Z,1004.25
2019-05-22T10:46:16.889Z,1004.24
2019-05-22T10:47:18.769Z,1004.26
2019-05-22T10:48:16.874Z,1004.68
2019-05-22T10:49:16.862Z,1004.80
2019-05-22T10:50:16.862Z,1004.64
2019-05-22T10:51:16.842Z,1004.89
2019-05-22T10:52:16.825Z,1004.85
2019-05-22T10:53:32.353Z,1004.29
2019-05-22T10:54:17.812Z,1004.25
2019-05-22T10:55:16.844Z,1004.14
2019-05-22T10:56:16.797Z,1004.07
2019-05-22T10:57:16.773Z,1004.08
2019-05-22T10:58:16.789Z,1004.08
2019-05-22T10:59:16.743Z,1004.17
2019-05-22T11:00:16.786Z,1004.82
2019-05-22T11:01:16.736Z,1004.17
2019-05-22T11:02:16.713Z,1004.71
2019-05-22T11:03:16.709Z,1004.75
2019-05-22T11:04:19.301Z,1004.89
2019-05-22T11:05:16.711Z,1004.82
2019-05-22T11:06:16.703Z,1004.88
2019-05-22T11:07:16.676Z,1004.92
2019-05-22T11:08:16.681Z,1004.36
2019-05-22T11:09:16.646Z,1005.06
2019-05-22T11:10:16.632Z,1004.31
2019-05-22T11:11:16.674Z,1004.92
2019-05-22T11:12:16.603Z,1004.35
2019-05-22T11:13:16.606Z,1004.18
2019-05-22T11:14:16.589Z,1004.14
2019-05-22T11:15:16.572Z,1004.06
2019-05-22T11:16:16.603Z,1004.05
2019-05-22T11:17:16.566Z,1004.19
2019-05-22T11:18:16.555Z,1004.71
2019-05-22T11:19:16.533Z,1004.88
2019-05-22T11:20:16.536Z,1004.98
2019-05-22T11:21:16.530Z,1004.61
2019-05-22T11:22:16.527Z,1004.36
2019-05-22T11:23:16.499Z,1004.30
2019-05-22T11:24:16.494Z,1004.98
2019-05-22T11:25:16.473Z,1004.97
2019-05-22T11:26:16.467Z,1005.08
2019-05-22T11:27:16.471Z,1004.68
2019-05-22T11:28:16.455Z,1004.37
2019-05-22T11:29:16.464Z,1004.33
2019-05-22T11:30:16.419Z,1004.98
2019-05-22T11:31:16.406Z,1004.94
2019-05-22T11:32:16.419Z,1005.00
2019-05-22T11:33:16.395Z,1005.10
2019-05-22T11:34:16.387Z,1004.91
2019-05-22T11:35:16.379Z,1005.02
2019-05-22T11:36:16.356Z,1005.02
2019-05-22T11:37:16.380Z,1005.03
2019-05-22T11:38:16.353Z,1004.98
2019-05-22T11:39:16.333Z,1005.05
2019-05-22T11:40:16.329Z,1005.02
2019-05-22T11:41:16.319Z,1005.11
2019-05-22T11:42:16.310Z,1005.12
2019-05-22T11:43:16.294Z,1004.63
2019-05-22T11:44:16.280Z,1005.02
2019-05-22T11:45:16.294Z,1005.11
2019-05-22T11:46:16.267Z,1005.03
2019-05-22T11:47:16.273Z,1005.16
2019-05-22T11:48:16.321Z,1004.82
2019-05-22T11:49:17.669Z,1005.22
2019-05-22T11:50:16.234Z,1005.15
2019-05-22T11:51:16.218Z,1005.11
2019-05-22T11:52:16.226Z,1005.05
2019-05-22T11:53:16.271Z,1004.70
2019-05-22T11:54:16.206Z,1005.16
2019-05-22T11:55:16.166Z,1005.17
2019-05-22T15:41:40.715Z,1003.68
2019-05-22T15:42:40.744Z,1003.47
2019-05-22T15:43:40.681Z,1003.64
2019-05-22T15:44:40.677Z,1003.40
2019-05-22T15:45:40.676Z,1003.40
2019-05-22T15:46:40.766Z,1003.46
2019-05-22T15:47:53.616Z,1003.33
2019-05-22T15:48:41.670Z,1003.34
2019-05-22T15:49:40.672Z,1003.35
2019-05-22T15:50:40.621Z,1003.35